sensor_id;sensor_type;location;lat;lon;timestamp;P1;durP1;ratioP1;P2;durP2;ratioP2
53036;SDS011;38924;52.134;4.666;2022-08-02T00:00:45;548.55;;;504.20;;
53036;SDS011;38924;52.134;4.666;2022-08-02T00:03:10;555.17;;;510.42;;
53036;SDS011;38924;52.134;4.666;2022-08-02T00:05:36;530.35;;;487.23;;
53036;SDS011;38924;52.134;4.666;2022-08-02T00:08:04;535.70;;;494.20;;
53036;SDS011;38924;52.134;4.666;2022-08-02T00:10:30;548.88;;;505.08;;
53036;SDS011;38924;52.134;4.666;2022-08-02T00:12:56;537.45;;;493.58;;
53036;SDS011;38924;52.134;4.666;2022-08-02T00:15:22;563.28;;;516.85;;
53036;SDS011;38924;52.134;4.666;2022-08-02T00:17:48;576.25;;;529.10;;
53036;SDS011;38924;52.134;4.666;2022-08-02T00:20:14;570.47;;;524.70;;
53036;SDS011;38924;52.134;4.666;2022-08-02T00:22:40;569.13;;;524.72;;
53036;SDS011;38924;52.134;4.666;2022-08-02T00:25:05;574.03;;;528.53;;
53036;SDS011;38924;52.134;4.666;2022-08-02T00:27:31;588.28;;;541.35;;
53036;SDS011;38924;52.134;4.666;2022-08-02T00:29:57;603.83;;;556.55;;
53036;SDS011;38924;52.134;4.666;2022-08-02T00:32:23;612.13;;;564.63;;
53036;SDS011;38924;52.134;4.666;2022-08-02T00:34:49;568.10;;;523.55;;
53036;SDS011;38924;52.134;4.666;2022-08-02T00:37:14;595.47;;;548.65;;
53036;SDS011;38924;52.134;4.666;2022-08-02T00:39:40;605.42;;;557.65;;
53036;SDS011;38924;52.134;4.666;2022-08-02T00:42:07;609.58;;;562.53;;
53036;SDS011;38924;52.134;4.666;2022-08-02T00:44:33;592.25;;;546.25;;
53036;SDS011;38924;52.134;4.666;2022-08-02T00:46:58;594.35;;;547.05;;
53036;SDS011;38924;52.134;4.666;2022-08-02T00:49:24;584.40;;;536.88;;
53036;SDS011;38924;52.134;4.666;2022-08-02T00:51:52;577.92;;;531.72;;
53036;SDS011;38924;52.134;4.666;2022-08-02T00:54:18;583.88;;;537.85;;
53036;SDS011;38924;52.134;4.666;2022-08-02T00:56:47;610.58;;;562.55;;
53036;SDS011;38924;52.134;4.666;2022-08-02T00:59:12;602.40;;;555.58;;
53036;SDS011;38924;52.134;4.666;2022-08-02T01:01:40;604.85;;;556.40;;
53036;SDS011;38924;52.134;4.666;2022-08-02T01:04:11;610.45;;;561.85;;
53036;SDS011;38924;52.134;4.666;2022-08-02T01:06:37;601.63;;;554.92;;
53036;SDS011;38924;52.134;4.666;2022-08-02T01:09:03;612.80;;;565.35;;
53036;SDS011;38924;52.134;4.666;2022-08-02T01:11:31;601.40;;;553.10;;
53036;SDS011;38924;52.134;4.666;2022-08-02T01:13:57;623.72;;;573.75;;
53036;SDS011;38924;52.134;4.666;2022-08-02T01:16:25;605.90;;;557.58;;
53036;SDS011;38924;52.134;4.666;2022-08-02T01:18:53;615.15;;;567.00;;
53036;SDS011;38924;52.134;4.666;2022-08-02T01:33:50;588.63;;;544.75;;
53036;SDS011;38924;52.134;4.666;2022-08-02T01:36:17;619.58;;;571.83;;
53036;SDS011;38924;52.134;4.666;2022-08-02T01:38:48;622.28;;;573.70;;
53036;SDS011;38924;52.134;4.666;2022-08-02T01:41:17;636.38;;;587.45;;
53036;SDS011;38924;52.134;4.666;2022-08-02T01:43:43;636.00;;;586.13;;
53036;SDS011;38924;52.134;4.666;2022-08-02T01:46:09;634.20;;;584.13;;
53036;SDS011;38924;52.134;4.666;2022-08-02T01:48:39;611.00;;;563.38;;
53036;SDS011;38924;52.134;4.666;2022-08-02T01:51:05;629.85;;;581.38;;
53036;SDS011;38924;52.134;4.666;2022-08-02T01:53:32;650.70;;;601.00;;
53036;SDS011;38924;52.134;4.666;2022-08-02T01:55:59;600.15;;;554.83;;
53036;SDS011;38924;52.134;4.666;2022-08-02T01:58:30;641.22;;;593.15;;
53036;SDS011;38924;52.134;4.666;2022-08-02T02:00:56;653.28;;;602.22;;
53036;SDS011;38924;52.134;4.666;2022-08-02T02:03:23;605.28;;;559.55;;
53036;SDS011;38924;52.134;4.666;2022-08-02T02:05:50;649.08;;;599.25;;
53036;SDS011;38924;52.134;4.666;2022-08-02T02:08:19;641.78;;;591.42;;
53036;SDS011;38924;52.134;4.666;2022-08-02T02:10:46;622.40;;;574.63;;
53036;SDS011;38924;52.134;4.666;2022-08-02T02:13:12;612.90;;;566.53;;
53036;SDS011;38924;52.134;4.666;2022-08-02T02:15:48;628.53;;;580.58;;
53036;SDS011;38924;52.134;4.666;2022-08-02T02:18:19;634.67;;;586.40;;
53036;SDS011;38924;52.134;4.666;2022-08-02T02:20:46;626.13;;;578.05;;
53036;SDS011;38924;52.134;4.666;2022-08-02T02:23:12;645.72;;;595.60;;
53036;SDS011;38924;52.134;4.666;2022-08-02T02:25:39;646.75;;;597.85;;
53036;SDS011;38924;52.134;4.666;2022-08-02T02:28:06;618.80;;;571.22;;
53036;SDS011;38924;52.134;4.666;2022-08-02T02:30:33;606.92;;;560.58;;
53036;SDS011;38924;52.134;4.666;2022-08-02T02:33:01;612.40;;;566.25;;
53036;SDS011;38924;52.134;4.666;2022-08-02T02:35:31;624.47;;;576.60;;
53036;SDS011;38924;52.134;4.666;2022-08-02T02:37:58;606.63;;;560.85;;
53036;SDS011;38924;52.134;4.666;2022-08-02T02:40:26;584.28;;;539.05;;
53036;SDS011;38924;52.134;4.666;2022-08-02T02:42:52;608.83;;;562.63;;
53036;SDS011;38924;52.134;4.666;2022-08-02T02:45:20;609.80;;;562.58;;
53036;SDS011;38924;52.134;4.666;2022-08-02T02:47:50;606.17;;;559.58;;
53036;SDS011;38924;52.134;4.666;2022-08-02T02:50:17;600.53;;;554.03;;
53036;SDS011;38924;52.134;4.666;2022-08-02T02:52:42;589.10;;;543.30;;
53036;SDS011;38924;52.134;4.666;2022-08-02T02:55:09;553.65;;;510.60;;
53036;SDS011;38924;52.134;4.666;2022-08-02T02:57:36;579.15;;;534.35;;
53036;SDS011;38924;52.134;4.666;2022-08-02T03:00:14;582.50;;;538.42;;
53036;SDS011;38924;52.134;4.666;2022-08-02T03:02:40;585.00;;;540.05;;
53036;SDS011;38924;52.134;4.666;2022-08-02T03:05:06;582.33;;;537.88;;
53036;SDS011;38924;52.134;4.666;2022-08-02T03:07:33;565.10;;;522.13;;
53036;SDS011;38924;52.134;4.666;2022-08-02T03:09:59;551.15;;;508.42;;
53036;SDS011;38924;52.134;4.666;2022-08-02T03:12:25;558.50;;;514.92;;
53036;SDS011;38924;52.134;4.666;2022-08-02T03:14:52;550.38;;;507.67;;
53036;SDS011;38924;52.134;4.666;2022-08-02T03:17:20;569.58;;;524.90;;
53036;SDS011;38924;52.134;4.666;2022-08-02T03:19:46;556.47;;;513.40;;
53036;SDS011;38924;52.134;4.666;2022-08-02T03:22:12;552.92;;;510.95;;
53036;SDS011;38924;52.134;4.666;2022-08-02T03:24:37;551.45;;;510.60;;
53036;SDS011;38924;52.134;4.666;2022-08-02T03:27:03;536.30;;;495.52;;
53036;SDS011;38924;52.134;4.666;2022-08-02T03:29:29;557.28;;;515.35;;
53036;SDS011;38924;52.134;4.666;2022-08-02T03:31:54;552.78;;;509.75;;
53036;SDS011;38924;52.134;4.666;2022-08-02T03:34:21;561.67;;;518.92;;
53036;SDS011;38924;52.134;4.666;2022-08-02T03:36:47;541.35;;;499.58;;
53036;SDS011;38924;52.134;4.666;2022-08-02T03:39:15;537.78;;;496.50;;
53036;SDS011;38924;52.134;4.666;2022-08-02T03:41:42;547.72;;;506.10;;
53036;SDS011;38924;52.134;4.666;2022-08-02T03:44:08;564.03;;;521.58;;
53036;SDS011;38924;52.134;4.666;2022-08-02T03:46:35;539.60;;;497.88;;
53036;SDS011;38924;52.134;4.666;2022-08-02T03:49:04;600.58;;;554.22;;
53036;SDS011;38924;52.134;4.666;2022-08-02T03:51:30;540.03;;;498.17;;
53036;SDS011;38924;52.134;4.666;2022-08-02T03:53:55;527.10;;;487.05;;
53036;SDS011;38924;52.134;4.666;2022-08-02T03:56:21;558.97;;;515.25;;
53036;SDS011;38924;52.134;4.666;2022-08-02T03:58:47;561.53;;;517.53;;
53036;SDS011;38924;52.134;4.666;2022-08-02T04:01:12;556.08;;;513.42;;
53036;SDS011;38924;52.134;4.666;2022-08-02T04:03:38;540.50;;;498.98;;
53036;SDS011;38924;52.134;4.666;2022-08-02T04:06:04;527.97;;;487.35;;
53036;SDS011;38924;52.134;4.666;2022-08-02T04:08:30;551.92;;;509.73;;
53036;SDS011;38924;52.134;4.666;2022-08-02T04:10:56;546.00;;;502.40;;
53036;SDS011;38924;52.134;4.666;2022-08-02T04:13:40;549.22;;;507.10;;
53036;SDS011;38924;52.134;4.666;2022-08-02T04:16:17;565.90;;;522.90;;
53036;SDS011;38924;52.134;4.666;2022-08-02T04:18:45;546.20;;;504.48;;
53036;SDS011;38924;52.134;4.666;2022-08-02T04:21:16;533.70;;;493.13;;
53036;SDS011;38924;52.134;4.666;2022-08-02T04:23:42;523.95;;;484.42;;
53036;SDS011;38924;52.134;4.666;2022-08-02T04:26:09;553.35;;;509.70;;
53036;SDS011;38924;52.134;4.666;2022-08-02T04:28:36;518.97;;;478.98;;
53036;SDS011;38924;52.134;4.666;2022-08-02T04:31:02;521.58;;;482.23;;
53036;SDS011;38924;52.134;4.666;2022-08-02T04:33:28;537.85;;;496.67;;
53036;SDS011;38924;52.134;4.666;2022-08-02T04:35:53;522.67;;;482.45;;
53036;SDS011;38924;52.134;4.666;2022-08-02T04:38:20;514.83;;;473.88;;
53036;SDS011;38924;52.134;4.666;2022-08-02T04:40:49;527.70;;;487.05;;
53036;SDS011;38924;52.134;4.666;2022-08-02T04:43:15;532.55;;;491.85;;
53036;SDS011;38924;52.134;4.666;2022-08-02T04:45:41;528.38;;;488.15;;
53036;SDS011;38924;52.134;4.666;2022-08-02T04:48:07;527.60;;;487.45;;
53036;SDS011;38924;52.134;4.666;2022-08-02T04:50:33;525.33;;;484.67;;
53036;SDS011;38924;52.134;4.666;2022-08-02T04:52:58;512.25;;;472.63;;
53036;SDS011;38924;52.134;4.666;2022-08-02T04:55:24;511.30;;;470.85;;
53036;SDS011;38924;52.134;4.666;2022-08-02T04:57:53;531.03;;;491.75;;
53036;SDS011;38924;52.134;4.666;2022-08-02T05:00:22;530.67;;;490.30;;
53036;SDS011;38924;52.134;4.666;2022-08-02T05:02:48;522.60;;;482.40;;
53036;SDS011;38924;52.134;4.666;2022-08-02T05:05:13;519.15;;;479.90;;
53036;SDS011;38924;52.134;4.666;2022-08-02T05:07:39;541.17;;;499.90;;
53036;SDS011;38924;52.134;4.666;2022-08-02T05:10:05;563.67;;;519.50;;
53036;SDS011;38924;52.134;4.666;2022-08-02T05:12:31;543.00;;;501.35;;
53036;SDS011;38924;52.134;4.666;2022-08-02T05:14:57;540.10;;;497.42;;
53036;SDS011;38924;52.134;4.666;2022-08-02T05:17:25;562.80;;;519.63;;
53036;SDS011;38924;52.134;4.666;2022-08-02T05:19:51;532.22;;;490.60;;
53036;SDS011;38924;52.134;4.666;2022-08-02T05:22:17;553.97;;;511.48;;
53036;SDS011;38924;52.134;4.666;2022-08-02T05:24:42;555.88;;;511.98;;
53036;SDS011;38924;52.134;4.666;2022-08-02T05:27:08;533.35;;;492.60;;
53036;SDS011;38924;52.134;4.666;2022-08-02T05:29:34;582.70;;;538.38;;
53036;SDS011;38924;52.134;4.666;2022-08-02T05:31:59;572.20;;;527.45;;
53036;SDS011;38924;52.134;4.666;2022-08-02T05:34:26;564.58;;;521.38;;
53036;SDS011;38924;52.134;4.666;2022-08-02T05:36:51;568.58;;;524.47;;
53036;SDS011;38924;52.134;4.666;2022-08-02T05:39:17;583.08;;;538.13;;
53036;SDS011;38924;52.134;4.666;2022-08-02T05:41:42;571.13;;;525.78;;
53036;SDS011;38924;52.134;4.666;2022-08-02T05:44:08;562.95;;;518.40;;
53036;SDS011;38924;52.134;4.666;2022-08-02T05:46:34;562.30;;;518.58;;
53036;SDS011;38924;52.134;4.666;2022-08-02T05:48:59;569.35;;;524.13;;
53036;SDS011;38924;52.134;4.666;2022-08-02T05:51:27;543.50;;;500.45;;
53036;SDS011;38924;52.134;4.666;2022-08-02T06:01:44;579.47;;;534.15;;
53036;SDS011;38924;52.134;4.666;2022-08-02T06:04:15;586.10;;;539.97;;
53036;SDS011;38924;52.134;4.666;2022-08-02T06:06:44;601.63;;;554.40;;
53036;SDS011;38924;52.134;4.666;2022-08-02T06:09:14;616.72;;;567.13;;
53036;SDS011;38924;52.134;4.666;2022-08-02T06:11:44;607.92;;;559.35;;
53036;SDS011;38924;52.134;4.666;2022-08-02T06:14:10;633.42;;;582.22;;
53036;SDS011;38924;52.134;4.666;2022-08-02T06:16:38;620.10;;;569.95;;
53036;SDS011;38924;52.134;4.666;2022-08-02T06:19:04;671.60;;;617.67;;
53036;SDS011;38924;52.134;4.666;2022-08-02T06:21:30;678.47;;;624.30;;
53036;SDS011;38924;52.134;4.666;2022-08-02T06:23:56;684.00;;;628.53;;
53036;SDS011;38924;52.134;4.666;2022-08-02T06:26:24;670.78;;;616.60;;
53036;SDS011;38924;52.134;4.666;2022-08-02T06:28:54;728.03;;;667.45;;
53036;SDS011;38924;52.134;4.666;2022-08-02T06:31:20;716.42;;;659.30;;
53036;SDS011;38924;52.134;4.666;2022-08-02T06:33:46;726.63;;;666.20;;
53036;SDS011;38924;52.134;4.666;2022-08-02T06:38:40;734.50;;;672.30;;
53036;SDS011;38924;52.134;4.666;2022-08-02T06:41:07;734.13;;;673.58;;
53036;SDS011;38924;52.134;4.666;2022-08-02T06:43:44;794.92;;;727.58;;
53036;SDS011;38924;52.134;4.666;2022-08-02T06:46:11;784.17;;;717.55;;
53036;SDS011;38924;52.134;4.666;2022-08-02T06:48:36;801.78;;;734.92;;
53036;SDS011;38924;52.134;4.666;2022-08-02T06:51:03;885.55;;;807.45;;
53036;SDS011;38924;52.134;4.666;2022-08-02T06:53:31;843.55;;;767.85;;
53036;SDS011;38924;52.134;4.666;2022-08-02T06:55:57;829.72;;;758.65;;
53036;SDS011;38924;52.134;4.666;2022-08-02T06:58:23;929.22;;;845.67;;
53036;SDS011;38924;52.134;4.666;2022-08-02T07:00:49;872.33;;;794.28;;
53036;SDS011;38924;52.134;4.666;2022-08-02T07:03:16;872.25;;;794.17;;
53036;SDS011;38924;52.134;4.666;2022-08-02T07:05:41;890.95;;;809.88;;
53036;SDS011;38924;52.134;4.666;2022-08-02T07:08:12;958.00;;;870.38;;
53036;SDS011;38924;52.134;4.666;2022-08-02T07:10:37;946.10;;;856.60;;
53036;SDS011;38924;52.134;4.666;2022-08-02T07:13:03;924.30;;;839.88;;
53036;SDS011;38924;52.134;4.666;2022-08-02T07:15:28;906.40;;;823.35;;
53036;SDS011;38924;52.134;4.666;2022-08-02T07:17:54;937.20;;;851.65;;
53036;SDS011;38924;52.134;4.666;2022-08-02T07:20:20;964.75;;;874.45;;
53036;SDS011;38924;52.134;4.666;2022-08-02T07:22:48;877.00;;;798.15;;
53036;SDS011;38924;52.134;4.666;2022-08-02T07:25:14;954.42;;;866.55;;
53036;SDS011;38924;52.134;4.666;2022-08-02T07:27:43;970.15;;;875.65;;
53036;SDS011;38924;52.134;4.666;2022-08-02T07:30:08;1050.15;;;944.08;;
53036;SDS011;38924;52.134;4.666;2022-08-02T07:32:34;906.85;;;821.83;;
53036;SDS011;38924;52.134;4.666;2022-08-02T07:35:00;1039.22;;;936.10;;
53036;SDS011;38924;52.134;4.666;2022-08-02T07:37:28;1031.43;;;929.28;;
53036;SDS011;38924;52.134;4.666;2022-08-02T07:39:54;959.58;;;867.55;;
53036;SDS011;38924;52.134;4.666;2022-08-02T07:42:20;995.67;;;896.60;;
53036;SDS011;38924;52.134;4.666;2022-08-02T07:44:46;1015.50;;;912.67;;
53036;SDS011;38924;52.134;4.666;2022-08-02T07:47:11;1052.68;;;949.00;;
53036;SDS011;38924;52.134;4.666;2022-08-02T07:49:37;1013.63;;;911.47;;
53036;SDS011;38924;52.134;4.666;2022-08-02T07:52:03;1028.15;;;922.50;;
53036;SDS011;38924;52.134;4.666;2022-08-02T08:05:00;944.85;;;857.72;;
53036;SDS011;38924;52.134;4.666;2022-08-02T08:07:26;1019.38;;;917.25;;
53036;SDS011;38924;52.134;4.666;2022-08-02T08:09:52;1021.90;;;918.85;;
53036;SDS011;38924;52.134;4.666;2022-08-02T08:12:18;1067.13;;;954.25;;
53036;SDS011;38924;52.134;4.666;2022-08-02T08:14:43;1051.25;;;940.65;;
53036;SDS011;38924;52.134;4.666;2022-08-02T08:17:09;1022.05;;;914.15;;
53036;SDS011;38924;52.134;4.666;2022-08-02T08:19:35;1040.60;;;933.30;;
53036;SDS011;38924;52.134;4.666;2022-08-02T08:22:01;990.78;;;889.75;;
53036;SDS011;38924;52.134;4.666;2022-08-02T08:24:31;1044.82;;;936.88;;
53036;SDS011;38924;52.134;4.666;2022-08-02T08:27:00;1050.13;;;941.05;;
53036;SDS011;38924;52.134;4.666;2022-08-02T08:29:25;1074.57;;;956.05;;
53036;SDS011;38924;52.134;4.666;2022-08-02T08:31:51;1063.32;;;949.10;;
53036;SDS011;38924;52.134;4.666;2022-08-02T08:34:17;980.42;;;881.25;;
53036;SDS011;38924;52.134;4.666;2022-08-02T08:36:42;1029.40;;;923.83;;
53036;SDS011;38924;52.134;4.666;2022-08-02T08:39:08;1070.15;;;953.63;;
53036;SDS011;38924;52.134;4.666;2022-08-02T08:41:35;1084.50;;;966.72;;
53036;SDS011;38924;52.134;4.666;2022-08-02T08:44:00;1107.13;;;990.65;;
53036;SDS011;38924;52.134;4.666;2022-08-02T08:46:27;1073.10;;;956.92;;
53036;SDS011;38924;52.134;4.666;2022-08-02T08:48:57;1059.03;;;945.47;;
53036;SDS011;38924;52.134;4.666;2022-08-02T08:51:23;1052.88;;;940.90;;
53036;SDS011;38924;52.134;4.666;2022-08-02T08:53:52;1024.68;;;920.05;;
53036;SDS011;38924;52.134;4.666;2022-08-02T08:56:18;1100.00;;;982.85;;
53036;SDS011;38924;52.134;4.666;2022-08-02T08:58:44;1051.32;;;936.53;;
53036;SDS011;38924;52.134;4.666;2022-08-02T09:01:16;1101.50;;;985.38;;
53036;SDS011;38924;52.134;4.666;2022-08-02T09:03:45;1082.20;;;967.70;;
53036;SDS011;38924;52.134;4.666;2022-08-02T09:06:10;1058.68;;;951.95;;
53036;SDS011;38924;52.134;4.666;2022-08-02T09:08:36;1078.25;;;965.22;;
53036;SDS011;38924;52.134;4.666;2022-08-02T09:11:08;1067.28;;;957.58;;
53036;SDS011;38924;52.134;4.666;2022-08-02T09:13:36;1021.05;;;917.63;;
53036;SDS011;38924;52.134;4.666;2022-08-02T09:16:03;1050.60;;;940.00;;
53036;SDS011;38924;52.134;4.666;2022-08-02T09:20:55;1066.03;;;954.35;;
53036;SDS011;38924;52.134;4.666;2022-08-02T09:23:22;1077.45;;;965.47;;
53036;SDS011;38924;52.134;4.666;2022-08-02T09:28:40;1078.15;;;966.58;;
53036;SDS011;38924;52.134;4.666;2022-08-02T09:31:24;1061.18;;;952.38;;
53036;SDS011;38924;52.134;4.666;2022-08-02T09:33:51;1048.63;;;943.22;;
53036;SDS011;38924;52.134;4.666;2022-08-02T09:36:18;1058.55;;;950.05;;
53036;SDS011;38924;52.134;4.666;2022-08-02T09:38:56;1010.05;;;907.17;;
53036;SDS011;38924;52.134;4.666;2022-08-02T09:41:26;1034.65;;;930.97;;
53036;SDS011;38924;52.134;4.666;2022-08-02T09:43:52;1065.13;;;957.83;;
53036;SDS011;38924;52.134;4.666;2022-08-02T09:46:19;1052.13;;;941.13;;
53036;SDS011;38924;52.134;4.666;2022-08-02T09:48:49;1076.68;;;967.35;;
53036;SDS011;38924;52.134;4.666;2022-08-02T09:51:16;1099.07;;;985.40;;
53036;SDS011;38924;52.134;4.666;2022-08-02T09:53:42;1076.80;;;966.80;;
53036;SDS011;38924;52.134;4.666;2022-08-02T09:56:07;1052.43;;;945.72;;
53036;SDS011;38924;52.134;4.666;2022-08-02T09:58:36;1084.57;;;972.92;;
53036;SDS011;38924;52.134;4.666;2022-08-02T10:01:02;1116.57;;;995.85;;
53036;SDS011;38924;52.134;4.666;2022-08-02T10:03:28;1093.32;;;977.33;;
53036;SDS011;38924;52.134;4.666;2022-08-02T10:05:54;1057.05;;;948.80;;
53036;SDS011;38924;52.134;4.666;2022-08-02T10:08:22;1078.10;;;968.08;;
53036;SDS011;38924;52.134;4.666;2022-08-02T10:10:48;1036.72;;;928.50;;
53036;SDS011;38924;52.134;4.666;2022-08-02T10:13:14;1073.93;;;961.35;;
53036;SDS011;38924;52.134;4.666;2022-08-02T10:15:40;1041.00;;;936.63;;
53036;SDS011;38924;52.134;4.666;2022-08-02T10:18:06;1069.22;;;960.15;;
53036;SDS011;38924;52.134;4.666;2022-08-02T10:20:32;1075.22;;;969.92;;
53036;SDS011;38924;52.134;4.666;2022-08-02T10:23:00;1087.88;;;971.75;;
53036;SDS011;38924;52.134;4.666;2022-08-02T10:25:27;1082.72;;;971.38;;
53036;SDS011;38924;52.134;4.666;2022-08-02T10:27:53;1058.70;;;950.00;;
53036;SDS011;38924;52.134;4.666;2022-08-02T10:30:20;1027.07;;;923.58;;
53036;SDS011;38924;52.134;4.666;2022-08-02T10:32:47;1087.97;;;977.78;;
53036;SDS011;38924;52.134;4.666;2022-08-02T10:35:17;1046.57;;;943.05;;
53036;SDS011;38924;52.134;4.666;2022-08-02T10:37:45;1081.03;;;970.65;;
53036;SDS011;38924;52.134;4.666;2022-08-02T10:40:12;1062.65;;;957.42;;
53036;SDS011;38924;52.134;4.666;2022-08-02T10:42:56;1071.45;;;964.30;;
53036;SDS011;38924;52.134;4.666;2022-08-02T10:45:25;1096.20;;;984.85;;
53036;SDS011;38924;52.134;4.666;2022-08-02T10:47:57;1062.18;;;953.35;;
53036;SDS011;38924;52.134;4.666;2022-08-02T10:55:52;1086.18;;;977.53;;
53036;SDS011;38924;52.134;4.666;2022-08-02T10:58:20;1077.95;;;966.42;;
53036;SDS011;38924;52.134;4.666;2022-08-02T11:00:46;1058.15;;;957.60;;
53036;SDS011;38924;52.134;4.666;2022-08-02T11:06:12;1047.35;;;944.40;;
53036;SDS011;38924;52.134;4.666;2022-08-02T11:08:40;1053.50;;;946.25;;
53036;SDS011;38924;52.134;4.666;2022-08-02T11:16:19;1034.80;;;934.28;;
53036;SDS011;38924;52.134;4.666;2022-08-02T11:23:46;1070.13;;;962.17;;
53036;SDS011;38924;52.134;4.666;2022-08-02T11:28:55;1072.63;;;968.30;;
53036;SDS011;38924;52.134;4.666;2022-08-02T11:31:24;1038.38;;;938.40;;
53036;SDS011;38924;52.134;4.666;2022-08-02T11:33:50;1040.60;;;936.80;;
53036;SDS011;38924;52.134;4.666;2022-08-02T11:36:19;1058.85;;;954.65;;
53036;SDS011;38924;52.134;4.666;2022-08-02T11:38:45;1055.47;;;951.50;;
53036;SDS011;38924;52.134;4.666;2022-08-02T11:41:20;1053.43;;;950.47;;
53036;SDS011;38924;52.134;4.666;2022-08-02T11:43:46;1027.00;;;927.95;;
53036;SDS011;38924;52.134;4.666;2022-08-02T11:46:12;1038.13;;;939.47;;
53036;SDS011;38924;52.134;4.666;2022-08-02T11:48:39;1035.60;;;935.78;;
53036;SDS011;38924;52.134;4.666;2022-08-02T11:51:06;1057.55;;;954.85;;
53036;SDS011;38924;52.134;4.666;2022-08-02T11:56:07;1059.65;;;953.80;;
53036;SDS011;38924;52.134;4.666;2022-08-02T11:58:35;1072.72;;;968.55;;
53036;SDS011;38924;52.134;4.666;2022-08-02T12:01:01;1074.63;;;971.38;;
53036;SDS011;38924;52.134;4.666;2022-08-02T12:03:32;1069.70;;;961.60;;
53036;SDS011;38924;52.134;4.666;2022-08-02T12:05:58;1062.47;;;955.90;;
53036;SDS011;38924;52.134;4.666;2022-08-02T12:08:24;1041.40;;;939.67;;
53036;SDS011;38924;52.134;4.666;2022-08-02T12:10:53;1074.80;;;970.85;;
53036;SDS011;38924;52.134;4.666;2022-08-02T12:13:19;1038.10;;;936.25;;
53036;SDS011;38924;52.134;4.666;2022-08-02T12:15:48;1079.10;;;969.55;;
53036;SDS011;38924;52.134;4.666;2022-08-02T12:18:14;1015.90;;;916.83;;
53036;SDS011;38924;52.134;4.666;2022-08-02T12:21:02;1047.10;;;944.05;;
53036;SDS011;38924;52.134;4.666;2022-08-02T12:23:28;1044.43;;;942.17;;
53036;SDS011;38924;52.134;4.666;2022-08-02T12:26:03;1019.20;;;920.95;;
53036;SDS011;38924;52.134;4.666;2022-08-02T12:28:42;1037.88;;;940.15;;
53036;SDS011;38924;52.134;4.666;2022-08-02T12:31:11;1048.28;;;946.75;;
53036;SDS011;38924;52.134;4.666;2022-08-02T12:33:49;1017.78;;;921.58;;
53036;SDS011;38924;52.134;4.666;2022-08-02T12:36:16;1060.88;;;958.88;;
53036;SDS011;38924;52.134;4.666;2022-08-02T12:38:57;1035.75;;;939.22;;
53036;SDS011;38924;52.134;4.666;2022-08-02T12:41:25;998.40;;;905.85;;
53036;SDS011;38924;52.134;4.666;2022-08-02T12:43:51;1052.60;;;947.83;;
53036;SDS011;38924;52.134;4.666;2022-08-02T12:46:18;1022.13;;;924.85;;
53036;SDS011;38924;52.134;4.666;2022-08-02T12:48:44;995.35;;;901.15;;
53036;SDS011;38924;52.134;4.666;2022-08-02T12:51:23;1037.72;;;940.58;;
53036;SDS011;38924;52.134;4.666;2022-08-02T12:53:53;1067.38;;;964.15;;
53036;SDS011;38924;52.134;4.666;2022-08-02T12:56:28;992.78;;;894.92;;
53036;SDS011;38924;52.134;4.666;2022-08-02T12:58:54;1039.53;;;935.70;;
53036;SDS011;38924;52.134;4.666;2022-08-02T13:01:21;1015.05;;;918.63;;
53036;SDS011;38924;52.134;4.666;2022-08-02T13:03:47;1045.93;;;945.55;;
53036;SDS011;38924;52.134;4.666;2022-08-02T13:06:13;1059.40;;;955.63;;
53036;SDS011;38924;52.134;4.666;2022-08-02T13:08:39;1054.75;;;945.53;;
53036;SDS011;38924;52.134;4.666;2022-08-02T13:11:04;1045.80;;;948.83;;
53036;SDS011;38924;52.134;4.666;2022-08-02T13:13:30;1040.22;;;939.67;;
53036;SDS011;38924;52.134;4.666;2022-08-02T13:15:56;1072.35;;;967.55;;
53036;SDS011;38924;52.134;4.666;2022-08-02T13:18:22;1068.28;;;962.45;;
53036;SDS011;38924;52.134;4.666;2022-08-02T13:20:52;1054.13;;;949.55;;
53036;SDS011;38924;52.134;4.666;2022-08-02T13:23:17;1058.35;;;954.40;;
53036;SDS011;38924;52.134;4.666;2022-08-02T13:25:43;1061.78;;;953.40;;
53036;SDS011;38924;52.134;4.666;2022-08-02T13:28:09;1075.30;;;969.65;;
53036;SDS011;38924;52.134;4.666;2022-08-02T13:30:35;1055.15;;;949.60;;
53036;SDS011;38924;52.134;4.666;2022-08-02T13:33:01;1075.53;;;970.35;;
53036;SDS011;38924;52.134;4.666;2022-08-02T13:35:26;1049.72;;;941.97;;
53036;SDS011;38924;52.134;4.666;2022-08-02T13:37:52;1035.63;;;930.60;;
53036;SDS011;38924;52.134;4.666;2022-08-02T13:40:18;1064.65;;;962.25;;
53036;SDS011;38924;52.134;4.666;2022-08-02T13:42:44;1084.43;;;974.67;;
53036;SDS011;38924;52.134;4.666;2022-08-02T13:45:15;1053.68;;;951.53;;
53036;SDS011;38924;52.134;4.666;2022-08-02T13:47:44;1081.57;;;976.15;;
53036;SDS011;38924;52.134;4.666;2022-08-02T13:50:09;1072.65;;;962.25;;
53036;SDS011;38924;52.134;4.666;2022-08-02T13:52:35;1024.97;;;925.58;;
53036;SDS011;38924;52.134;4.666;2022-08-02T13:55:01;1036.60;;;936.55;;
53036;SDS011;38924;52.134;4.666;2022-08-02T13:57:27;1072.20;;;964.83;;
53036;SDS011;38924;52.134;4.666;2022-08-02T13:59:52;1125.80;;;999.90;;
53036;SDS011;38924;52.134;4.666;2022-08-02T14:02:18;1050.03;;;946.33;;
53036;SDS011;38924;52.134;4.666;2022-08-02T14:04:44;1077.88;;;966.28;;
53036;SDS011;38924;52.134;4.666;2022-08-02T14:07:09;1029.63;;;928.15;;
53036;SDS011;38924;52.134;4.666;2022-08-02T14:09:35;1096.22;;;987.17;;
53036;SDS011;38924;52.134;4.666;2022-08-02T14:12:01;1082.57;;;970.20;;
53036;SDS011;38924;52.134;4.666;2022-08-02T14:14:27;1075.30;;;968.42;;
53036;SDS011;38924;52.134;4.666;2022-08-02T14:16:53;1056.97;;;953.22;;
53036;SDS011;38924;52.134;4.666;2022-08-02T14:19:18;1079.40;;;967.85;;
53036;SDS011;38924;52.134;4.666;2022-08-02T14:21:47;1096.22;;;977.25;;
53036;SDS011;38924;52.134;4.666;2022-08-02T14:24:13;1026.30;;;921.00;;
53036;SDS011;38924;52.134;4.666;2022-08-02T14:26:42;1083.97;;;970.88;;
53036;SDS011;38924;52.134;4.666;2022-08-02T14:29:08;1119.18;;;995.40;;
53036;SDS011;38924;52.134;4.666;2022-08-02T14:31:33;1085.93;;;973.30;;
53036;SDS011;38924;52.134;4.666;2022-08-02T14:33:59;1101.45;;;984.47;;
53036;SDS011;38924;52.134;4.666;2022-08-02T14:36:27;1101.25;;;989.35;;
53036;SDS011;38924;52.134;4.666;2022-08-02T14:38:53;1100.50;;;982.38;;
53036;SDS011;38924;52.134;4.666;2022-08-02T14:41:19;1040.63;;;933.17;;
53036;SDS011;38924;52.134;4.666;2022-08-02T14:43:45;1091.93;;;978.88;;
53036;SDS011;38924;52.134;4.666;2022-08-02T14:46:32;1074.30;;;960.97;;
53036;SDS011;38924;52.134;4.666;2022-08-02T14:49:02;1065.00;;;952.42;;
53036;SDS011;38924;52.134;4.666;2022-08-02T14:51:29;1102.15;;;983.55;;
53036;SDS011;38924;52.134;4.666;2022-08-02T14:53:55;1112.57;;;994.70;;